Date,TemperatureHighF,TemperatureAvgF,TemperatureLowF,DewpointHighF,DewpointAvgF,DewpointLowF,HumidityHigh,HumidityAvg,HumidityLow,PressureMaxIn,PressureMinIn,WindSpeedMaxMPH,WindSpeedAvgMPH,GustSpeedMaxMPH,PrecipitationSumIn
2013-12-1,78,55,39,58,49,38,97,82,45,30.25,29.96,3,0,4,0.01
2013-12-2,76,66,60,66,62,58,96,88,68,29.97,29.71,7,1,12,0.00
2013-12-3,76,68,63,69,66,62,97,93,78,29.77,29.67,7,1,9,0.00
2013-12-4,78,72,68,73,70,67,97,93,83,29.86,29.74,7,2,14,0.00
2013-12-5,80,70,54,74,68,53,96,92,81,29.96,29.84,12,2,19,0.04
2013-12-6,54,45,39,53,43,36,97,93,88,30.30,29.91,7,0,21,0.06
2013-12-7,39,37,35,36,32,-100,92,88,84,30.37,30.26,8,0,13,0.00
2013-12-8,45,40,35,44,38,33,96,94,91,30.27,30.06,4,0,5,0.76
2013-12-9,46,44,40,45,43,39,96,95,94,30.23,30.05,6,0,10,0.08
2013-12-10,50,41,37,39,36,34,94,82,61,30.42,30.24,11,1,18,0.01
2013-12-11,48,42,35,41,37,33,91,82,74,30.47,30.34,2,0,7,0.00
2013-12-12,54,44,36,40,35,32,89,73,51,30.55,30.35,4,0,10,0.00
2013-12-13,64,50,39,63,45,32,97,82,70,30.35,29.88,6,1,9,0.50
2013-12-14,65,57,45,63,53,39,97,86,70,30.20,29.84,9,2,19,0.04
2013-12-15,54,44,33,39,36,32,95,76,56,30.33,30.20,8,0,13,0.00
2013-12-16,58,42,29,44,36,28,97,83,48,30.36,30.25,3,0,4,0.00
2013-12-17,67,47,32,51,41,31,97,83,43,30.35,30.24,3,0,7,0.00
2013-12-18,68,50,38,55,44,37,97,81,38,30.35,30.17,5,0,10,0.01
2013-12-19,73,62,47,65,58,46,96,86,64,30.17,29.94,12,3,20,0.00
2013-12-20,76,70,66,70,68,65,95,92,83,29.98,29.84,17,5,24,0.00
2013-12-21,73,68,57,71,67,56,97,95,90,29.84,29.61,16,4,20,0.53
2013-12-22,64,57,43,62,54,38,98,89,76,30.26,29.80,10,1,14,0.02
2013-12-23,50,42,36,38,34,31,85,73,50,30.52,30.26,7,0,15,0.00
2013-12-24,53,40,29,38,33,28,95,78,49,30.57,30.35,8,0,10,0.00
2013-12-25,56,43,34,39,36,32,91,77,47,30.42,30.31,2,0,6,0.00
2013-12-26,59,47,35,42,38,34,93,74,43,30.42,30.29,8,0,8,0.00
2013-12-27,52,48,46,41,38,35,79,69,53,30.44,30.30,0,0,6,0.00
2013-12-28,53,47,37,44,40,36,95,76,63,30.29,30.02,1,0,4,0.00
2013-12-29,65,47,32,47,39,32,97,77,40,30.14,30.02,0,0,4,0.00
2013-12-30,49,47,42,45,42,39,90,83,79,30.37,30.12,3,0,9,0.00
2013-12-31,49,44,40,40,38,37,90,81,64,30.42,30.29,5,0,9,0.00